createdAt,value
2018-03-12T00:01:56.282Z,10.40
2018-03-12T00:04:22.603Z,10.40
2018-03-12T00:06:48.883Z,10.30
2018-03-12T00:09:15.158Z,10.30
2018-03-12T00:11:41.441Z,10.30
2018-03-12T00:14:07.730Z,10.30
2018-03-12T00:16:34.773Z,10.00
2018-03-12T00:19:01.050Z,10.00
2018-03-12T00:21:27.346Z,9.90
2018-03-12T00:23:54.378Z,9.90
2018-03-12T00:26:20.687Z,9.90
2018-03-12T00:28:46.984Z,9.80
2018-03-12T00:31:13.272Z,9.70
2018-03-12T00:33:39.563Z,9.50
2018-03-12T00:36:05.838Z,9.30
2018-03-12T00:38:32.869Z,8.80
2018-03-12T00:40:59.161Z,8.80
2018-03-12T00:43:25.479Z,8.90
2018-03-12T00:45:51.763Z,9.00
2018-03-12T00:48:18.071Z,8.90
2018-03-12T00:50:44.350Z,9.00
2018-03-12T00:53:10.675Z,8.90
2018-03-12T00:55:37.710Z,8.90
2018-03-12T00:58:05.731Z,9.00
2018-03-12T01:00:32.023Z,9.00
2018-03-12T01:02:58.307Z,9.00
2018-03-12T01:05:24.603Z,8.90
2018-03-12T01:07:50.886Z,8.80
2018-03-12T01:10:17.167Z,8.80
2018-03-12T01:12:43.444Z,8.70
2018-03-12T01:15:10.466Z,8.90
2018-03-12T01:17:37.180Z,8.80
2018-03-12T01:20:03.507Z,8.80
2018-03-12T01:22:29.806Z,8.80
2018-03-12T01:24:56.881Z,8.70
2018-03-12T01:27:23.160Z,8.70
2018-03-12T01:29:49.454Z,8.70
2018-03-12T01:32:15.748Z,8.80
2018-03-12T01:34:42.782Z,8.80
2018-03-12T01:37:09.071Z,8.80
2018-03-12T01:39:35.355Z,8.80
2018-03-12T01:42:02.393Z,8.80
2018-03-12T01:44:29.434Z,8.80
2018-03-12T01:46:55.710Z,8.80
2018-03-12T01:49:22.014Z,8.70
2018-03-12T01:51:49.026Z,8.80
2018-03-12T01:54:15.310Z,8.70
2018-03-12T01:56:41.590Z,8.90
2018-03-12T01:59:07.872Z,8.80
2018-03-12T02:01:34.147Z,8.80
2018-03-12T02:04:00.429Z,8.90
2018-03-12T02:06:26.708Z,8.90
2018-03-12T02:08:53.742Z,8.90
2018-03-12T02:11:20.016Z,8.90
2018-03-12T02:13:47.034Z,8.80
2018-03-12T02:16:13.318Z,8.80
2018-03-12T02:18:40.638Z,8.80
2018-03-12T02:21:07.659Z,8.70
2018-03-12T02:23:33.974Z,8.60
2018-03-12T02:26:00.242Z,8.70
2018-03-12T02:28:28.289Z,8.80
2018-03-12T02:30:54.576Z,8.80
2018-03-12T02:33:20.853Z,8.80
2018-03-12T02:35:47.126Z,8.60
2018-03-12T02:38:13.421Z,8.70
2018-03-12T02:40:40.471Z,8.50
2018-03-12T02:43:06.765Z,8.50
2018-03-12T02:45:33.098Z,8.40
2018-03-12T02:47:59.374Z,8.40
2018-03-12T02:50:26.408Z,8.50
2018-03-12T02:52:52.690Z,8.40
2018-03-12T02:55:19.003Z,8.50
2018-03-12T02:57:45.278Z,8.50
2018-03-12T03:00:11.594Z,8.60
2018-03-12T03:02:37.863Z,8.60
2018-03-12T03:05:04.194Z,8.50
2018-03-12T03:07:30.477Z,8.50
2018-03-12T03:09:56.814Z,8.50
2018-03-12T03:12:23.096Z,8.50
2018-03-12T03:14:50.137Z,8.50
2018-03-12T03:17:16.418Z,8.50
2018-03-12T03:19:42.742Z,8.40
2018-03-12T03:22:09.034Z,8.30
2018-03-12T03:24:36.091Z,8.40
2018-03-12T03:27:03.140Z,8.40
2018-03-12T03:29:30.163Z,8.40
2018-03-12T03:31:57.182Z,8.40
2018-03-12T03:34:23.466Z,8.40
2018-03-12T03:36:49.749Z,8.40
2018-03-12T03:39:16.094Z,8.50
2018-03-12T03:41:42.501Z,8.60
2018-03-12T03:44:08.775Z,8.60
2018-03-12T03:46:35.087Z,8.60
2018-03-12T03:49:01.366Z,8.60
2018-03-12T03:51:27.690Z,8.60
2018-03-12T03:53:53.962Z,8.60
2018-03-12T03:56:20.234Z,8.30
2018-03-12T03:58:47.316Z,8.10
2018-03-12T04:01:14.298Z,8.10
2018-03-12T04:03:40.579Z,8.10
2018-03-12T04:06:07.587Z,8.20
2018-03-12T04:08:33.858Z,8.20
2018-03-12T04:11:00.882Z,8.30
2018-03-12T04:13:27.154Z,8.30
2018-03-12T04:15:53.435Z,8.20
2018-03-12T04:18:19.710Z,8.00
2018-03-12T04:20:45.976Z,8.00
2018-03-12T04:23:12.265Z,8.00
2018-03-12T04:25:38.539Z,8.00
2018-03-12T04:28:04.842Z,7.90
2018-03-12T04:30:31.118Z,7.90
2018-03-12T04:32:57.390Z,7.80
2018-03-12T04:35:23.662Z,7.90
2018-03-12T04:37:49.979Z,7.80
2018-03-12T04:40:16.267Z,7.90
2018-03-12T04:42:42.623Z,8.00
2018-03-12T04:45:08.903Z,7.90
2018-03-12T04:47:35.180Z,7.90
2018-03-12T04:50:01.828Z,7.80
2018-03-12T04:52:28.117Z,7.90
2018-03-12T04:54:55.161Z,7.90
2018-03-12T04:57:22.177Z,7.90
2018-03-12T04:59:48.498Z,7.90
2018-03-12T05:02:14.779Z,7.90
2018-03-12T05:04:41.070Z,7.90
2018-03-12T05:07:07.338Z,8.00
2018-03-12T05:09:34.342Z,8.10
2018-03-12T05:12:00.622Z,8.10
2018-03-12T05:14:26.894Z,8.10
2018-03-12T05:16:53.168Z,8.10
2018-03-12T05:19:20.179Z,8.00
2018-03-12T05:21:46.483Z,7.90
2018-03-12T05:24:12.750Z,8.00
2018-03-12T05:26:39.040Z,8.10
2018-03-12T05:29:05.298Z,8.20
2018-03-12T05:31:31.606Z,8.30
2018-03-12T05:33:57.878Z,8.30
2018-03-12T05:36:24.919Z,8.40
2018-03-12T05:38:51.198Z,8.40
2018-03-12T05:41:17.492Z,8.50
2018-03-12T05:43:44.514Z,8.50
2018-03-12T05:46:10.803Z,8.40
2018-03-12T05:48:37.079Z,8.40
2018-03-12T05:51:03.379Z,8.40
2018-03-12T05:53:30.398Z,8.50
2018-03-12T05:55:56.674Z,8.40
2018-03-12T05:58:22.942Z,8.40
2018-03-12T06:00:50.544Z,8.40
2018-03-12T06:03:16.830Z,8.40
2018-03-12T06:05:43.875Z,8.40
2018-03-12T06:08:11.059Z,8.40
2018-03-12T06:10:37.335Z,8.40
2018-03-12T06:13:03.689Z,8.40
2018-03-12T06:15:29.922Z,8.40
2018-03-12T06:17:56.207Z,8.30
2018-03-12T06:20:22.483Z,8.30
2018-03-12T06:22:48.764Z,8.20
2018-03-12T06:25:15.060Z,8.30
2018-03-12T06:27:41.322Z,8.10
2018-03-12T06:30:07.598Z,7.90
2018-03-12T06:32:34.598Z,7.70
2018-03-12T06:35:00.868Z,7.70
2018-03-12T06:37:27.887Z,7.60
2018-03-12T06:39:54.162Z,7.60
2018-03-12T06:42:20.442Z,7.60
2018-03-12T06:44:46.736Z,7.70
2018-03-12T06:47:13.051Z,7.80
2018-03-12T06:49:40.349Z,7.80
2018-03-12T06:52:06.642Z,7.90
2018-03-12T06:54:32.906Z,7.80
2018-03-12T06:56:59.216Z,7.80
2018-03-12T06:59:25.542Z,7.90
2018-03-12T07:01:51.806Z,7.90
2018-03-12T07:04:18.086Z,7.90
2018-03-12T07:06:44.774Z,8.00
2018-03-12T07:09:11.075Z,8.00
2018-03-12T07:11:37.380Z,8.10
2018-03-12T07:14:03.683Z,8.10
2018-03-12T07:16:30.719Z,8.20
2018-03-12T07:18:57.737Z,8.20
2018-03-12T07:21:24.032Z,8.20
2018-03-12T07:23:50.327Z,8.30
2018-03-12T07:26:16.626Z,8.30
2018-03-12T07:28:43.055Z,8.40
2018-03-12T07:31:09.490Z,8.40
2018-03-12T07:33:35.654Z,8.50
2018-03-12T07:36:02.008Z,8.50
2018-03-12T07:38:29.022Z,8.60
2018-03-12T07:40:55.323Z,8.60
2018-03-12T07:43:21.615Z,8.70
2018-03-12T07:45:48.991Z,8.60
2018-03-12T07:48:15.294Z,8.60
2018-03-12T07:50:42.349Z,8.80
2018-03-12T07:53:09.362Z,8.90
2018-03-12T07:55:36.402Z,8.90
2018-03-12T07:58:02.711Z,8.90
2018-03-12T08:00:29.004Z,9.00
2018-03-12T08:02:56.104Z,9.00
2018-03-12T08:05:22.370Z,9.00
2018-03-12T08:07:50.419Z,9.00
2018-03-12T08:10:16.691Z,9.10
2018-03-12T08:12:43.271Z,9.20
2018-03-12T08:15:09.567Z,9.20
2018-03-12T08:17:35.846Z,9.20
2018-03-12T08:20:02.143Z,9.20
2018-03-12T08:22:28.423Z,9.10
2018-03-12T08:24:54.713Z,9.10
2018-03-12T08:27:20.995Z,9.10
2018-03-12T08:29:48.026Z,9.10
2018-03-12T08:32:14.294Z,9.00
2018-03-12T08:34:40.585Z,9.00
2018-03-12T08:37:06.908Z,9.20
2018-03-12T08:39:33.306Z,9.10
2018-03-12T08:41:59.595Z,9.20
2018-03-12T08:44:26.889Z,9.20
2018-03-12T08:46:53.174Z,9.20
2018-03-12T08:49:20.190Z,9.20
2018-03-12T08:51:46.498Z,9.20
2018-03-12T08:54:12.774Z,9.30
2018-03-12T08:56:39.799Z,9.30
2018-03-12T08:59:06.122Z,9.20
2018-03-12T09:01:32.411Z,9.40
2018-03-12T09:03:58.683Z,9.40
2018-03-12T09:06:24.979Z,9.40
2018-03-12T09:08:51.263Z,9.50
2018-03-12T09:11:17.558Z,9.50
2018-03-12T09:13:43.830Z,9.60
2018-03-12T09:16:10.839Z,9.70
2018-03-12T09:18:37.126Z,9.70
2018-03-12T09:21:03.792Z,9.90
2018-03-12T09:23:30.082Z,9.90
2018-03-12T09:25:57.108Z,10.00
2018-03-12T09:28:23.386Z,10.00
2018-03-12T09:30:49.683Z,10.00
2018-03-12T09:33:16.780Z,10.10
2018-03-12T09:35:43.186Z,10.10
2018-03-12T09:38:09.475Z,10.10
2018-03-12T09:40:35.753Z,10.20
2018-03-12T09:43:02.043Z,10.20
2018-03-12T09:45:28.343Z,10.30
2018-03-12T09:47:55.364Z,10.30
2018-03-12T09:50:21.658Z,10.30
2018-03-12T09:52:48.011Z,10.40
2018-03-12T09:55:14.287Z,10.40
2018-03-12T09:57:41.302Z,10.40
2018-03-12T10:00:07.578Z,10.40
2018-03-12T10:02:34.611Z,10.60
2018-03-12T10:05:01.678Z,10.70
2018-03-12T10:07:28.699Z,10.80
2018-03-12T10:09:54.969Z,10.80
2018-03-12T10:12:21.318Z,10.80
2018-03-12T10:14:47.582Z,11.00
2018-03-12T10:17:13.887Z,11.20
2018-03-12T10:19:40.155Z,11.40
2018-03-12T10:22:06.431Z,11.60
2018-03-12T10:24:32.746Z,11.70
2018-03-12T10:26:59.819Z,11.70
2018-03-12T10:29:26.118Z,11.60
2018-03-12T10:31:52.400Z,11.60
2018-03-12T10:34:18.694Z,11.40
2018-03-12T10:36:45.007Z,11.40
2018-03-12T10:39:12.019Z,11.00
2018-03-12T10:41:38.318Z,11.00
2018-03-12T10:44:04.609Z,10.80
2018-03-12T10:46:31.623Z,10.70
2018-03-12T10:48:57.958Z,10.60
2018-03-12T10:51:24.233Z,10.60
2018-03-12T10:53:50.567Z,10.40
2018-03-12T10:56:16.868Z,10.20
2018-03-12T10:58:44.380Z,9.90
2018-03-12T11:01:16.692Z,9.90
2018-03-12T11:03:44.764Z,10.30
2018-03-12T11:06:17.155Z,10.30
2018-03-12T11:08:44.770Z,10.40
2018-03-12T11:11:11.119Z,10.40
2018-03-12T11:13:37.386Z,10.30
2018-03-12T11:16:03.687Z,10.30
2018-03-12T11:18:29.971Z,10.20
2018-03-12T11:20:56.267Z,10.00
2018-03-12T11:23:22.584Z,10.10
2018-03-12T11:25:49.607Z,10.40
2018-03-12T11:28:15.907Z,10.30
2018-03-12T11:30:42.183Z,10.50
2018-03-12T11:33:08.460Z,10.70
2018-03-12T11:35:34.738Z,10.90
2018-03-12T11:38:01.013Z,11.00
2018-03-12T11:40:27.299Z,11.20
2018-03-12T11:42:53.583Z,11.50
2018-03-12T11:45:19.883Z,11.60
2018-03-12T11:47:46.887Z,11.70
2018-03-12T11:50:13.174Z,11.70
2018-03-12T11:52:39.451Z,11.90
2018-03-12T11:55:05.719Z,12.00
2018-03-12T11:57:32.752Z,11.80
2018-03-12T11:59:59.782Z,11.90
2018-03-12T12:02:27.539Z,11.80
2018-03-12T12:04:53.806Z,11.70
2018-03-12T12:07:20.133Z,11.40
2018-03-12T12:09:47.146Z,11.40
2018-03-12T12:12:13.447Z,11.50
2018-03-12T12:14:39.732Z,11.50
2018-03-12T12:17:06.774Z,12.00
2018-03-12T12:19:33.791Z,12.10
2018-03-12T12:22:00.107Z,12.10
2018-03-12T12:24:26.402Z,12.10
2018-03-12T12:26:53.441Z,11.90
2018-03-12T12:29:20.467Z,12.00
2018-03-12T12:31:46.762Z,11.90
2018-03-12T12:34:14.074Z,12.30
2018-03-12T12:36:41.129Z,12.30
2018-03-12T12:39:08.154Z,12.40
2018-03-12T12:41:34.462Z,12.30
2018-03-12T12:44:01.751Z,12.40
2018-03-12T12:46:28.054Z,12.30
2018-03-12T12:48:54.356Z,12.50
2018-03-12T12:51:20.660Z,12.60
2018-03-12T12:53:46.951Z,12.30
2018-03-12T12:56:13.514Z,12.10
2018-03-12T12:58:40.535Z,12.10
2018-03-12T13:01:06.847Z,12.10
2018-03-12T13:03:33.131Z,12.10
2018-03-12T13:05:59.416Z,12.10
2018-03-12T13:08:25.696Z,12.30
2018-03-12T13:10:52.013Z,12.50
2018-03-12T13:13:18.298Z,12.90
2018-03-12T13:15:44.591Z,13.20
2018-03-12T13:18:12.103Z,13.70
2018-03-12T13:20:38.428Z,14.00
2018-03-12T13:23:04.728Z,14.40
2018-03-12T13:25:31.027Z,14.90
2018-03-12T13:27:57.317Z,14.50
2018-03-12T13:30:25.083Z,13.30
2018-03-12T13:32:54.319Z,13.30
2018-03-12T13:35:21.342Z,12.90
2018-03-12T13:37:50.528Z,12.90
2018-03-12T13:40:16.799Z,13.00
2018-03-12T13:42:44.114Z,13.10
2018-03-12T13:45:10.399Z,12.90
2018-03-12T13:47:36.703Z,12.90
2018-03-12T13:50:03.023Z,13.30
2018-03-12T13:52:29.316Z,13.70
2018-03-12T13:54:55.620Z,14.10
2018-03-12T13:57:21.899Z,14.10
2018-03-12T13:59:48.238Z,13.60
2018-03-12T14:02:14.477Z,13.10
2018-03-12T14:04:41.796Z,12.60
2018-03-12T14:07:09.116Z,12.40
2018-03-12T14:09:35.398Z,12.30
2018-03-12T14:12:02.699Z,12.50
2018-03-12T14:14:28.969Z,12.40
2018-03-12T14:16:55.241Z,12.30
2018-03-12T14:19:22.253Z,13.00
2018-03-12T14:21:48.514Z,13.00
2018-03-12T14:24:15.534Z,13.50
2018-03-12T14:26:41.826Z,13.50
2018-03-12T14:29:08.830Z,13.80
2018-03-12T14:31:38.338Z,13.80
2018-03-12T14:34:04.625Z,13.70
2018-03-12T14:36:30.902Z,13.70
2018-03-12T14:38:57.187Z,13.70
2018-03-12T14:41:24.215Z,13.50
2018-03-12T14:43:50.518Z,13.50
2018-03-12T14:46:16.797Z,13.60
2018-03-12T14:48:43.092Z,13.70
2018-03-12T14:51:12.519Z,13.50
2018-03-12T14:53:38.795Z,13.10
2018-03-12T14:56:07.299Z,13.00
2018-03-12T14:58:34.319Z,12.70
2018-03-12T15:01:00.614Z,12.60
2018-03-12T15:03:26.883Z,12.60
2018-03-12T15:05:53.369Z,12.70
2018-03-12T15:08:19.635Z,12.60
2018-03-12T15:10:46.556Z,12.40
2018-03-12T15:13:15.812Z,12.30
2018-03-12T15:15:42.098Z,12.20
2018-03-12T15:18:08.408Z,12.20
2018-03-12T15:20:34.674Z,12.30
2018-03-12T15:23:01.691Z,12.70
2018-03-12T15:25:27.982Z,12.70
2018-03-12T15:27:54.276Z,12.80
2018-03-12T15:30:21.286Z,12.50
2018-03-12T15:32:47.562Z,12.50
2018-03-12T15:35:14.605Z,12.00
2018-03-12T15:37:41.946Z,11.80
2018-03-12T15:40:08.983Z,11.70
2018-03-12T15:42:35.255Z,11.60
2018-03-12T15:45:01.527Z,11.60
2018-03-12T15:47:27.815Z,11.50
2018-03-12T15:49:54.090Z,11.40
2018-03-12T15:52:20.436Z,11.40
2018-03-12T15:54:47.444Z,11.10
2018-03-12T15:57:13.768Z,11.00
2018-03-12T15:59:40.028Z,10.90
2018-03-12T16:02:06.330Z,10.50
2018-03-12T16:04:32.610Z,10.50
2018-03-12T16:06:59.663Z,10.40
2018-03-12T16:09:26.690Z,10.40
2018-03-12T16:11:52.978Z,10.40
2018-03-12T16:14:19.256Z,10.40
2018-03-12T16:16:46.153Z,10.40
2018-03-12T16:19:12.475Z,10.40
2018-03-12T16:21:38.779Z,10.30
2018-03-12T16:24:05.067Z,10.40
2018-03-12T16:26:31.338Z,10.20
2018-03-12T16:28:57.611Z,10.10
2018-03-12T16:31:23.878Z,10.00
2018-03-12T16:33:50.246Z,9.90
2018-03-12T16:36:16.531Z,9.60
2018-03-12T16:38:43.591Z,9.50
2018-03-12T16:41:09.890Z,9.50
2018-03-12T16:43:36.173Z,9.50
2018-03-12T16:46:03.479Z,9.30
2018-03-12T16:48:30.515Z,9.10
2018-03-12T16:50:56.817Z,9.10
2018-03-12T16:53:23.081Z,9.10
2018-03-12T16:55:49.349Z,9.00
2018-03-12T16:58:15.666Z,8.80
2018-03-12T17:00:41.948Z,8.70
2018-03-12T17:03:08.222Z,8.70
2018-03-12T17:05:34.553Z,8.60
2018-03-12T17:08:01.587Z,8.40
2018-03-12T17:10:29.630Z,8.30
2018-03-12T17:12:55.910Z,8.30
2018-03-12T17:15:22.211Z,8.20
2018-03-12T17:17:49.241Z,8.10
2018-03-12T17:20:15.546Z,8.10
2018-03-12T17:22:41.822Z,8.10
2018-03-12T17:25:08.843Z,7.90
2018-03-12T17:27:35.131Z,7.90
2018-03-12T17:30:01.416Z,7.90
2018-03-12T17:32:27.715Z,7.80
2018-03-12T17:34:53.986Z,7.80
2018-03-12T17:37:20.282Z,7.80
2018-03-12T17:39:46.563Z,7.70
2018-03-12T17:42:13.608Z,7.70
2018-03-12T17:44:40.638Z,7.70
2018-03-12T17:47:06.922Z,7.60
2018-03-12T17:49:33.198Z,7.70
2018-03-12T17:51:59.483Z,7.60
2018-03-12T17:54:25.763Z,7.50
2018-03-12T17:56:52.782Z,7.50
2018-03-12T17:59:19.112Z,7.40
2018-03-12T18:01:45.406Z,7.40
2018-03-12T18:04:11.718Z,7.40
2018-03-12T18:06:38.730Z,7.40
2018-03-12T18:09:06.506Z,7.40
2018-03-12T18:11:32.778Z,7.30
2018-03-12T18:13:59.060Z,7.40
2018-03-12T18:16:25.339Z,7.30
2018-03-12T18:18:51.627Z,7.20
2018-03-12T18:21:17.914Z,7.30
2018-03-12T18:23:44.218Z,7.30
2018-03-12T18:26:10.510Z,7.30
2018-03-12T18:28:36.920Z,7.30
2018-03-12T18:31:03.208Z,7.30
2018-03-12T18:33:29.523Z,7.30
2018-03-12T18:35:55.822Z,7.30
2018-03-12T18:38:23.140Z,7.30
2018-03-12T18:40:49.431Z,7.40
2018-03-12T18:43:16.494Z,7.40
2018-03-12T18:45:43.579Z,7.40
2018-03-12T18:48:09.886Z,7.30
2018-03-12T18:50:36.167Z,7.40
2018-03-12T18:53:02.439Z,7.40
2018-03-12T18:55:28.722Z,7.40
2018-03-12T18:57:55.023Z,7.40
2018-03-12T19:00:21.316Z,7.40
2018-03-12T19:02:48.334Z,7.40
2018-03-12T19:05:14.633Z,7.40
2018-03-12T19:07:40.898Z,7.40
2018-03-12T19:10:09.954Z,7.60
2018-03-12T19:12:36.247Z,7.50
2018-03-12T19:15:03.317Z,7.50
2018-03-12T19:17:29.596Z,7.50
2018-03-12T19:19:55.951Z,7.50
2018-03-12T19:22:23.014Z,7.50
2018-03-12T19:24:49.281Z,7.50
2018-03-12T19:27:15.561Z,7.50
2018-03-12T19:29:42.619Z,7.40
2018-03-12T19:32:09.660Z,7.50
2018-03-12T19:34:36.688Z,7.40
2018-03-12T19:37:04.489Z,7.30
2018-03-12T19:39:30.802Z,7.30
2018-03-12T19:41:57.831Z,7.30
2018-03-12T19:44:24.116Z,7.20
2018-03-12T19:46:50.406Z,7.20
2018-03-12T19:49:17.462Z,7.20
2018-03-12T19:51:44.475Z,7.20
2018-03-12T19:54:10.802Z,7.20
2018-03-12T19:56:37.087Z,7.10
2018-03-12T19:59:03.973Z,7.10
2018-03-12T20:01:30.250Z,7.20
2018-03-12T20:03:57.283Z,7.10
2018-03-12T20:06:23.589Z,7.00
2018-03-12T20:08:49.911Z,7.10
2018-03-12T20:11:16.250Z,7.00
2018-03-12T20:16:31.608Z,7.10
2018-03-12T20:18:58.622Z,7.10
2018-03-12T20:21:24.947Z,7.10
2018-03-12T20:23:51.258Z,7.20
2018-03-12T20:26:18.274Z,7.10
2018-03-12T20:28:44.547Z,7.00
2018-03-12T20:31:10.819Z,7.10
2018-03-12T20:33:37.092Z,7.10
2018-03-12T20:36:03.422Z,7.10
2018-03-12T20:38:29.722Z,7.10
2018-03-12T20:40:55.995Z,7.00
2018-03-12T20:43:22.301Z,7.00
2018-03-12T20:45:48.578Z,6.90
2018-03-12T20:48:14.863Z,7.00
2018-03-12T20:50:41.150Z,7.00
2018-03-12T20:53:08.178Z,7.00
2018-03-12T20:55:35.731Z,6.90
2018-03-12T20:58:02.006Z,7.00
2018-03-12T21:00:28.339Z,6.90
2018-03-12T21:02:54.627Z,6.90
2018-03-12T21:05:20.923Z,6.90
2018-03-12T21:07:47.220Z,6.90
2018-03-12T21:10:14.246Z,6.80
2018-03-12T21:12:40.513Z,6.80
2018-03-12T21:15:07.832Z,6.80
2018-03-12T21:17:34.123Z,6.80
2018-03-12T21:20:00.411Z,6.90
2018-03-12T21:22:26.699Z,7.00
2018-03-12T21:24:53.006Z,7.00
2018-03-12T21:27:19.298Z,6.90
2018-03-12T21:29:47.339Z,6.90
2018-03-12T21:32:15.130Z,6.90
2018-03-12T21:34:42.240Z,6.90
2018-03-12T21:37:08.493Z,6.90
2018-03-12T21:39:34.770Z,6.90
2018-03-12T21:42:01.056Z,6.90
2018-03-12T21:44:28.082Z,6.90
2018-03-12T21:46:54.379Z,6.90
2018-03-12T21:49:20.660Z,6.90
2018-03-12T21:51:46.947Z,6.90
2018-03-12T21:54:13.259Z,6.90
2018-03-12T21:56:39.542Z,6.90
2018-03-12T21:59:05.805Z,6.90
2018-03-12T22:01:32.126Z,6.90
2018-03-12T22:03:59.161Z,6.90
2018-03-12T22:06:26.177Z,6.90
2018-03-12T22:08:52.466Z,6.90
2018-03-12T22:11:18.754Z,6.90
2018-03-12T22:13:45.059Z,6.90
2018-03-12T22:16:11.363Z,6.90
2018-03-12T22:18:37.646Z,6.90
2018-03-12T22:21:03.934Z,6.80
2018-03-12T22:23:30.216Z,6.90
2018-03-12T22:25:57.263Z,6.80
2018-03-12T22:28:24.286Z,6.80
2018-03-12T22:30:50.598Z,6.80
2018-03-12T22:33:16.882Z,6.80
2018-03-12T22:35:44.087Z,6.80
2018-03-12T22:38:10.378Z,6.80
2018-03-12T22:40:36.655Z,6.90
2018-03-12T22:43:02.922Z,6.80
2018-03-12T22:45:29.935Z,6.90
2018-03-12T22:47:56.231Z,6.90
2018-03-12T22:50:22.497Z,6.90
2018-03-12T22:52:48.786Z,7.00
2018-03-12T22:55:15.054Z,7.00
2018-03-12T22:57:41.335Z,7.10
2018-03-12T23:00:07.639Z,7.20
2018-03-12T23:02:33.906Z,7.20
2018-03-12T23:05:00.210Z,7.20
2018-03-12T23:07:26.550Z,7.30
2018-03-12T23:09:52.856Z,7.30
2018-03-12T23:12:19.141Z,7.40
2018-03-12T23:14:46.470Z,7.50
2018-03-12T23:17:12.742Z,7.40
2018-03-12T23:19:39.064Z,7.40
2018-03-12T23:22:05.398Z,7.50
2018-03-12T23:24:31.662Z,7.60
2018-03-12T23:26:57.963Z,7.60
2018-03-12T23:29:24.241Z,7.60
2018-03-12T23:31:50.510Z,7.50
2018-03-12T23:34:16.790Z,7.40
2018-03-12T23:36:43.124Z,7.40
2018-03-12T23:39:09.423Z,7.30
2018-03-12T23:41:35.699Z,7.30
2018-03-12T23:44:02.027Z,7.20
2018-03-12T23:46:28.313Z,7.20
2018-03-12T23:48:54.591Z,7.30
2018-03-12T23:51:21.634Z,7.20
2018-03-12T23:53:47.919Z,7.30
2018-03-12T23:56:15.242Z,7.20
2018-03-12T23:58:42.280Z,7.10
